Time;durP1;ratioP1;P1;durP2;ratioP2;P2;SDS_P1;SDS_P2;PMS_P1;PMS_P2;Temp;Humidity;BMP_temperature;BMP_pressure;BME280_temperature;BME280_humidity;BME280_pressure;Samples;Min_cycle;Max_cycle;Signal;HPM_P1;HPM_P2
2021/10/20 00:01:11;;;;;;;14.45;10.25;;;25.60;99.90;;;;;;1941860;71;21049;-73
2021/10/20 00:03:42;;;;;;;17.07;11.22;;;25.60;99.90;;;;;;1955417;71;21217;-73
2021/10/20 00:06:14;;;;;;;18.07;11.05;;;25.70;99.90;;;;;;1953693;73;21104;-73
2021/10/20 00:08:45;;;;;;;16.85;11.08;;;25.70;99.90;;;;;;1918026;73;21264;-73
2021/10/20 00:11:16;;;;;;;17.87;11.40;;;25.70;99.90;;;;;;1934752;72;21209;-72
2021/10/20 00:13:48;;;;;;;17.15;10.98;;;25.80;99.90;;;;;;1943064;72;21128;-73
2021/10/20 00:16:20;;;;;;;16.93;11.05;;;25.80;99.90;;;;;;1955806;72;21068;-71
2021/10/20 00:18:51;;;;;;;16.40;9.88;;;25.90;99.90;;;;;;1946113;72;21160;-72
2021/10/20 00:21:26;;;;;;;13.32;9.75;;;25.90;99.90;;;;;;1949675;72;21154;-72
2021/10/20 00:23:59;;;;;;;13.50;10.10;;;25.90;99.90;;;;;;1945996;72;21179;-71
2021/10/20 00:26:29;;;;;;;14.65;9.68;;;26.00;99.90;;;;;;1934701;72;21122;-71
2021/10/20 00:29:00;;;;;;;14.40;10.25;;;26.00;99.90;;;;;;1958244;72;21619;-71
2021/10/20 00:31:31;;;;;;;13.45;9.43;;;26.10;99.90;;;;;;1949259;72;21123;-72
2021/10/20 00:34:02;;;;;;;10.68;7.87;;;26.10;99.90;;;;;;1950645;72;21215;-72
2021/10/20 00:36:33;;;;;;;12.60;8.40;;;26.20;99.90;;;;;;1960561;72;21630;-72
2021/10/20 00:39:05;;;;;;;13.20;8.50;;;26.20;99.90;;;;;;1931433;72;21602;-72
2021/10/20 00:41:35;;;;;;;14.13;8.90;;;26.20;99.90;;;;;;1875931;75;21252;-72
2021/10/20 00:44:07;;;;;;;13.90;8.33;;;26.30;99.90;;;;;;1956032;72;21087;-72
2021/10/20 00:46:38;;;;;;;17.65;8.00;;;26.20;99.90;;;;;;1936122;72;21593;-73
2021/10/20 00:49:09;;;;;;;11.70;7.85;;;26.30;99.90;;;;;;1959258;72;21155;-72
2021/10/20 00:51:39;;;;;;;13.72;8.38;;;26.30;99.90;;;;;;1970976;72;21149;-72
2021/10/20 00:54:10;;;;;;;15.43;8.60;;;26.40;99.90;;;;;;1944912;72;21172;-73
2021/10/20 00:56:41;;;;;;;10.85;6.95;;;26.40;99.90;;;;;;1933471;72;21634;-73
2021/10/20 00:59:12;;;;;;;9.13;7.33;;;26.40;99.90;;;;;;1946042;71;21114;-72
2021/10/20 01:01:43;;;;;;;10.98;7.17;;;26.40;99.90;;;;;;1912777;73;21214;-73
2021/10/20 01:04:14;;;;;;;12.35;8.25;;;26.50;99.90;;;;;;1965833;71;21129;-72
2021/10/20 01:06:46;;;;;;;10.18;7.30;;;26.50;99.90;;;;;;1939673;72;21209;-72
2021/10/20 01:09:17;;;;;;;10.10;7.55;;;26.60;99.90;;;;;;1910195;74;21204;-73
2021/10/20 01:11:48;;;;;;;11.63;7.85;;;26.60;99.90;;;;;;1954172;72;21627;-73
2021/10/20 01:14:22;;;;;;;12.60;7.20;;;26.60;99.90;;;;;;1952450;72;21305;-73
2021/10/20 01:16:56;;;;;;;10.93;7.33;;;26.60;99.90;;;;;;1930568;71;21154;-73
2021/10/20 01:19:27;;;;;;;9.30;6.60;;;26.70;99.90;;;;;;1949212;72;21106;-73
2021/10/20 01:21:58;;;;;;;12.90;6.53;;;26.70;99.90;;;;;;1973843;71;21209;-73
2021/10/20 01:24:31;;;;;;;8.48;5.83;;;26.80;99.90;;;;;;1949484;72;21280;-73
2021/10/20 01:27:03;;;;;;;9.90;5.80;;;26.80;99.90;;;;;;1957682;71;21559;-71
2021/10/20 01:29:34;;;;;;;6.67;4.90;;;26.90;99.90;;;;;;1948974;71;21105;-72
2021/10/20 01:32:08;;;;;;;8.00;5.28;;;26.90;99.90;;;;;;1952672;71;21600;-72
2021/10/20 01:34:39;;;;;;;11.33;5.62;;;26.90;99.90;;;;;;1952168;71;21108;-72
2021/10/20 01:37:11;;;;;;;9.80;5.80;;;26.90;99.90;;;;;;1957492;71;22126;-72
2021/10/20 01:39:42;;;;;;;10.70;8.60;;;27.00;99.90;;;;;;1920900;72;21143;-73
2021/10/20 01:42:16;;;;;;;9.25;6.28;;;27.10;99.90;;;;;;1958598;70;21599;-73
2021/10/20 01:44:47;;;;;;;8.20;4.37;;;27.20;99.90;;;;;;1951134;71;21147;-73
2021/10/20 01:47:19;;;;;;;6.45;5.20;;;27.20;99.90;;;;;;1940927;72;22135;-73
2021/10/20 01:49:50;;;;;;;7.90;4.80;;;27.30;99.90;;;;;;1923761;72;21292;-72
2021/10/20 01:52:21;;;;;;;11.40;6.22;;;27.30;99.90;;;;;;1914064;74;21135;-73
2021/10/20 01:54:52;;;;;;;12.23;5.78;;;27.40;99.90;;;;;;1969309;71;21122;-72
2021/10/20 01:57:22;;;;;;;7.40;5.50;;;27.40;99.90;;;;;;1936717;72;21166;-73
2021/10/20 01:59:53;;;;;;;13.55;6.17;;;27.50;99.90;;;;;;1930291;71;21128;-74
2021/10/20 02:02:25;;;;;;;10.23;5.28;;;27.60;99.90;;;;;;1920836;72;21171;-73
2021/10/20 02:04:59;;;;;;;7.83;5.50;;;27.60;99.90;;;;;;1947394;72;21103;-72
2021/10/20 02:07:29;;;;;;;9.08;5.25;;;27.70;99.90;;;;;;1943715;72;21185;-72
2021/10/20 02:10:00;;;;;;;8.60;6.00;;;27.70;99.90;;;;;;1954995;72;21653;-73
2021/10/20 02:12:31;;;;;;;9.55;5.72;;;27.70;99.90;;;;;;1957558;71;21068;-74
2021/10/20 02:15:02;;;;;;;7.33;6.53;;;27.80;99.90;;;;;;1952393;71;21926;-72
2021/10/20 02:17:33;;;;;;;11.95;6.28;;;27.80;99.90;;;;;;1955895;72;21115;-73
2021/10/20 02:20:06;;;;;;;9.98;5.12;;;27.90;99.90;;;;;;1967824;71;21605;-72
2021/10/20 02:22:37;;;;;;;8.10;5.33;;;28.00;99.90;;;;;;1940006;72;21156;-73
2021/10/20 02:25:10;;;;;;;26.42;19.17;;;28.00;99.90;;;;;;1937838;71;21610;-72
2021/10/20 02:27:41;;;;;;;11.45;7.17;;;28.00;99.90;;;;;;1938502;71;21219;-74
2021/10/20 02:30:13;;;;;;;9.80;5.60;;;28.10;99.90;;;;;;1947310;72;22166;-75
2021/10/20 02:32:44;;;;;;;13.22;8.88;;;28.10;99.90;;;;;;1937335;72;21605;-74
2021/10/20 02:35:15;;;;;;;13.95;7.80;;;28.10;99.90;;;;;;1951394;73;21144;-75
2021/10/20 02:37:46;;;;;;;8.28;5.12;;;28.00;99.90;;;;;;1944414;72;21189;-75
2021/10/20 02:40:17;;;;;;;13.00;7.10;;;28.00;99.90;;;;;;1923159;72;21195;-75
2021/10/20 02:42:48;;;;;;;11.95;6.15;;;28.00;99.90;;;;;;1950163;72;21163;-74
2021/10/20 02:45:19;;;;;;;8.13;5.65;;;28.00;99.90;;;;;;1962501;72;21544;-74
2021/10/20 02:47:50;;;;;;;19.57;16.30;;;28.00;99.90;;;;;;1940845;72;21674;-74
2021/10/20 02:50:22;;;;;;;12.35;5.55;;;28.00;99.90;;;;;;1936241;72;21102;-75
2021/10/20 02:52:53;;;;;;;9.45;5.03;;;28.00;99.90;;;;;;1925079;72;21167;-74
2021/10/20 02:55:24;;;;;;;6.65;5.08;;;28.00;99.90;;;;;;1936209;72;21102;-75
2021/10/20 02:57:55;;;;;;;8.20;5.45;;;28.00;99.90;;;;;;1892956;74;21115;-75
2021/10/20 03:00:26;;;;;;;9.15;4.87;;;27.90;99.90;;;;;;1883327;74;21648;-75
2021/10/20 03:02:56;;;;;;;7.67;5.25;;;27.90;99.90;;;;;;1936314;72;21181;-75
2021/10/20 03:05:27;;;;;;;6.60;4.78;;;27.90;99.90;;;;;;1947405;72;21685;-75
2021/10/20 03:07:58;;;;;;;7.35;4.30;;;27.90;99.90;;;;;;1932195;72;21108;-75
2021/10/20 03:10:29;;;;;;;9.43;4.33;;;27.90;99.90;;;;;;1947719;72;21153;-75
2021/10/20 03:12:59;;;;;;;9.80;4.50;;;27.90;99.90;;;;;;1951277;72;21129;-75
2021/10/20 03:15:30;;;;;;;6.70;4.40;;;27.90;99.90;;;;;;1877207;75;21192;-75
2021/10/20 03:18:01;;;;;;;6.47;4.22;;;27.90;99.90;;;;;;1937941;72;21091;-75
2021/10/20 03:20:32;;;;;;;5.55;4.10;;;27.90;99.90;;;;;;1950980;72;21222;-74
2021/10/20 03:23:03;;;;;;;8.20;4.85;;;27.90;99.90;;;;;;1948642;72;21136;-74
2021/10/20 03:25:34;;;;;;;7.60;4.58;;;28.00;99.90;;;;;;1948687;71;21116;-75
2021/10/20 03:28:05;;;;;;;6.10;4.80;;;28.00;99.90;;;;;;1951755;72;21231;-75
2021/10/20 03:30:36;;;;;;;8.53;5.20;;;28.00;99.90;;;;;;1949086;71;21644;-75
2021/10/20 03:33:07;;;;;;;9.53;4.75;;;28.00;99.90;;;;;;1933218;72;21454;-74
2021/10/20 03:35:38;;;;;;;9.40;5.87;;;28.00;99.90;;;;;;1946130;72;21250;-75
2021/10/20 03:38:10;;;;;;;9.30;6.58;;;28.00;99.90;;;;;;1943404;72;21176;-75
2021/10/20 03:40:42;;;;;;;9.43;5.50;;;28.00;99.90;;;;;;1874566;75;21686;-75
2021/10/20 03:43:14;;;;;;;8.60;5.50;;;28.00;99.90;;;;;;1946521;72;21605;-75
2021/10/20 03:45:45;;;;;;;7.75;5.37;;;28.00;99.90;;;;;;1875919;75;21965;-75
2021/10/20 03:48:16;;;;;;;6.97;5.33;;;28.00;99.90;;;;;;1946178;72;21259;-75
2021/10/20 03:50:46;;;;;;;12.85;10.72;;;28.00;99.90;;;;;;1944063;72;21120;-75
2021/10/20 03:53:17;;;;;;;8.65;6.97;;;28.00;99.90;;;;;;1951934;72;21176;-75
2021/10/20 03:55:48;;;;;;;11.75;7.08;;;28.00;99.90;;;;;;1936355;72;21218;-76
2021/10/20 03:58:21;;;;;;;7.90;5.55;;;28.00;99.90;;;;;;1945953;72;21174;-75
2021/10/20 04:00:54;;;;;;;14.70;10.45;;;28.10;99.90;;;;;;1959323;72;21068;-75
2021/10/20 04:03:25;;;;;;;10.72;7.83;;;28.20;99.90;;;;;;1973176;72;21169;-77
2021/10/20 04:05:56;;;;;;;8.63;5.47;;;28.30;99.90;;;;;;1974662;72;21099;-76
2021/10/20 04:08:27;;;;;;;8.05;5.10;;;28.60;99.90;;;;;;1955560;72;21586;-76
2021/10/20 04:10:58;;;;;;;7.28;5.30;;;28.80;99.90;;;;;;1953847;71;21637;-76
2021/10/20 04:13:29;;;;;;;6.33;4.25;;;28.90;99.90;;;;;;1936944;72;21438;-77
2021/10/20 04:16:00;;;;;;;7.78;4.62;;;29.10;99.90;;;;;;1922397;73;21158;-77
2021/10/20 04:18:32;;;;;;;5.83;4.75;;;29.30;99.90;;;;;;1928562;72;21180;-76
2021/10/20 04:21:04;;;;;;;6.08;4.55;;;;;;;;;;1946136;72;21288;-77
2021/10/20 04:23:36;;;;;;;7.10;5.20;;;29.70;99.90;;;;;;1961647;71;21164;-74
2021/10/20 04:26:07;;;;;;;7.50;5.62;;;30.00;99.90;;;;;;1959103;72;21163;-73
2021/10/20 04:28:38;;;;;;;6.25;4.58;;;30.10;99.90;;;;;;1947791;72;21078;-73
2021/10/20 04:31:08;;;;;;;20.75;16.32;;;30.30;99.30;;;;;;1957780;72;21684;-73
2021/10/20 04:33:39;;;;;;;8.10;4.00;;;30.30;98.70;;;;;;1948530;72;21142;-74
2021/10/20 04:36:10;;;;;;;6.42;4.20;;;30.20;98.00;;;;;;1933852;73;21198;-74
2021/10/20 04:38:41;;;;;;;7.00;4.00;;;30.20;98.70;;;;;;1945354;72;21232;-74
2021/10/20 04:41:12;;;;;;;6.35;4.20;;;30.10;98.80;;;;;;1943590;72;21203;-74
2021/10/20 04:43:42;;;;;;;7.70;5.22;;;30.20;98.80;;;;;;1926420;74;21611;-74
2021/10/20 04:46:13;;;;;;;8.20;4.95;;;30.20;98.80;;;;;;1954719;72;21084;-74
2021/10/20 04:48:45;;;;;;;8.60;4.60;;;30.20;98.70;;;;;;1972993;72;21198;-75
2021/10/20 04:51:15;;;;;;;6.35;4.40;;;30.10;98.60;;;;;;1964168;72;21120;-74
2021/10/20 04:53:46;;;;;;;8.65;5.90;;;30.00;98.90;;;;;;1967660;72;21063;-74
2021/10/20 04:56:17;;;;;;;7.22;4.75;;;29.90;99.60;;;;;;1930427;71;21130;-76
2021/10/20 04:58:48;;;;;;;10.35;5.80;;;29.80;99.50;;;;;;1951491;72;21614;-75
2021/10/20 05:01:19;;;;;;;7.12;4.33;;;29.70;99.50;;;;;;1952998;72;21152;-75
2021/10/20 05:03:50;;;;;;;7.37;4.33;;;29.70;99.60;;;;;;1930016;72;21207;-75
2021/10/20 05:06:21;;;;;;;7.45;5.37;;;29.70;99.40;;;;;;1924916;72;21162;-73
2021/10/20 05:08:52;;;;;;;7.10;4.75;;;29.80;99.50;;;;;;1879512;75;21653;-74
2021/10/20 05:11:23;;;;;;;8.98;5.03;;;30.00;99.10;;;;;;1880955;74;21641;-75
2021/10/20 05:13:53;;;;;;;6.95;5.08;;;30.10;98.50;;;;;;1946534;72;21090;-75
2021/10/20 05:16:24;;;;;;;7.92;4.53;;;30.20;98.70;;;;;;1935692;73;21137;-74
2021/10/20 05:18:55;;;;;;;7.28;5.47;;;30.20;98.60;;;;;;1929908;72;22056;-74
2021/10/20 05:21:26;;;;;;;6.92;4.75;;;30.20;98.40;;;;;;1945401;72;21108;-73
2021/10/20 05:23:57;;;;;;;5.92;4.72;;;30.20;97.60;;;;;;1945926;72;21620;-73
2021/10/20 05:26:28;;;;;;;7.47;4.60;;;30.30;98.10;;;;;;1924439;72;21082;-73
2021/10/20 05:28:58;;;;;;;8.25;5.95;;;30.30;97.80;;;;;;1951747;71;21108;-74
2021/10/20 05:31:29;;;;;;;8.83;4.75;;;30.30;97.70;;;;;;1935428;72;21589;-74
2021/10/20 05:34:00;;;;;;;5.60;3.85;;;30.20;97.60;;;;;;1958580;72;21182;-74
2021/10/20 05:36:32;;;;;;;8.60;4.60;;;30.10;97.10;;;;;;1930044;72;21217;-74
2021/10/20 05:39:04;;;;;;;8.58;6.30;;;30.10;97.60;;;;;;1947802;72;21128;-74
2021/10/20 05:41:35;;;;;;;7.42;4.95;;;30.20;97.90;;;;;;1930838;72;21056;-74
2021/10/20 05:44:06;;;;;;;6.67;4.87;;;30.40;96.70;;;;;;1939553;72;21120;-74
2021/10/20 05:46:38;;;;;;;5.72;4.45;;;;;;;;;;1941262;72;21083;-74
2021/10/20 05:49:21;;;;;;;6.65;5.25;;;30.70;95.80;;;;;;1942199;71;21177;-74
2021/10/20 05:51:52;;;;;;;6.47;4.95;;;30.80;95.30;;;;;;1947407;72;21082;-74
2021/10/20 05:54:23;;;;;;;6.75;5.05;;;30.90;94.70;;;;;;1945545;72;21073;-73
2021/10/20 05:56:53;;;;;;;5.83;4.10;;;31.10;94.30;;;;;;1907692;73;21239;-74
2021/10/20 05:59:24;;;;;;;7.62;4.50;;;31.20;93.40;;;;;;1962615;72;21653;-74
2021/10/20 06:01:55;;;;;;;7.75;4.22;;;31.30;93.00;;;;;;1938592;71;21184;-74
2021/10/20 06:04:26;;;;;;;5.33;3.70;;;31.30;94.20;;;;;;1918168;71;21194;-74
2021/10/20 06:06:58;;;;;;;11.12;8.00;;;31.40;93.60;;;;;;1942981;72;21112;-74
2021/10/20 06:09:29;;;;;;;5.65;4.65;;;31.40;93.30;;;;;;1941355;72;21171;-75
2021/10/20 06:12:00;;;;;;;14.03;5.62;;;31.40;93.60;;;;;;1932679;72;21135;-74
2021/10/20 06:14:31;;;;;;;8.48;4.90;;;31.40;93.00;;;;;;1952223;71;21534;-74
2021/10/20 06:17:02;;;;;;;4.90;4.30;;;31.30;92.60;;;;;;1945420;72;21532;-74
2021/10/20 06:19:32;;;;;;;7.95;4.97;;;31.20;93.90;;;;;;1945259;72;21929;-74
2021/10/20 06:22:03;;;;;;;6.75;5.05;;;31.20;93.90;;;;;;1899842;73;21076;-74
2021/10/20 06:24:34;;;;;;;5.65;4.22;;;31.10;93.50;;;;;;1894650;73;21184;-74
2021/10/20 06:27:05;;;;;;;8.35;5.15;;;31.20;93.10;;;;;;1897157;73;21249;-74
2021/10/20 06:29:36;;;;;;;7.75;5.10;;;31.20;93.70;;;;;;1880108;74;21139;-74
2021/10/20 06:32:07;;;;;;;6.17;4.47;;;31.30;93.40;;;;;;1931804;71;21182;-74
2021/10/20 06:34:38;;;;;;;7.40;4.20;;;31.40;92.80;;;;;;1954752;71;21249;-74
2021/10/20 06:37:09;;;;;;;5.83;4.67;;;31.50;92.40;;;;;;1954670;72;21166;-74
2021/10/20 06:39:39;;;;;;;8.88;4.08;;;31.50;92.20;;;;;;1961745;71;21120;-74
2021/10/20 06:42:10;;;;;;;7.12;6.00;;;31.50;92.40;;;;;;1894550;73;21863;-75
2021/10/20 06:44:41;;;;;;;7.80;5.83;;;31.60;92.50;;;;;;1884388;74;21777;-74
2021/10/20 06:47:12;;;;;;;7.72;5.20;;;31.70;92.80;;;;;;1899194;74;21183;-74
2021/10/20 06:49:42;;;;;;;5.80;4.53;;;31.70;93.20;;;;;;1892736;73;21132;-74
2021/10/20 06:52:13;;;;;;;8.50;5.35;;;31.60;93.50;;;;;;1899732;73;21209;-74
2021/10/20 06:54:44;;;;;;;6.33;5.15;;;31.50;93.60;;;;;;1885336;74;21866;-74
2021/10/20 06:57:15;;;;;;;7.15;4.47;;;31.40;93.60;;;;;;1882040;74;21158;-74
2021/10/20 06:59:46;;;;;;;7.50;4.60;;;31.30;93.70;;;;;;1953561;72;21067;-74
2021/10/20 07:02:17;;;;;;;5.47;3.67;;;31.10;94.00;;;;;;1904800;73;21124;-74
2021/10/20 07:04:48;;;;;;;6.45;4.22;;;31.00;93.70;;;;;;1948648;72;21072;-74
2021/10/20 07:07:19;;;;;;;6.58;4.42;;;30.90;94.50;;;;;;1944428;71;21504;-74
2021/10/20 07:09:50;;;;;;;10.45;4.92;;;30.80;94.60;;;;;;1894904;73;21190;-74
2021/10/20 07:12:21;;;;;;;12.07;5.70;;;30.70;94.30;;;;;;1884334;74;21733;-74
2021/10/20 07:14:52;;;;;;;7.35;3.85;;;30.70;94.20;;;;;;1938724;71;21282;-73
2021/10/20 07:17:22;;;;;;;6.55;4.65;;;30.70;94.60;;;;;;1952603;71;21600;-74
2021/10/20 07:19:53;;;;;;;10.38;5.33;;;30.70;94.20;;;;;;1900588;73;21616;-74
2021/10/20 07:22:24;;;;;;;5.35;3.40;;;30.60;94.20;;;;;;1906547;73;21239;-74
2021/10/20 07:24:55;;;;;;;4.70;3.72;;;30.70;93.60;;;;;;1857147;75;21611;-74
2021/10/20 07:27:26;;;;;;;5.08;3.40;;;30.80;93.30;;;;;;1843789;75;21260;-73
2021/10/20 07:29:56;;;;;;;5.35;3.62;;;30.90;93.50;;;;;;1894794;73;21073;-74
2021/10/20 07:32:27;;;;;;;4.30;3.50;;;31.00;93.30;;;;;;1899868;73;21110;-74
2021/10/20 07:34:58;;;;;;;8.03;4.12;;;31.00;92.90;;;;;;1940310;71;21104;-74
2021/10/20 07:37:29;;;;;;;7.15;3.95;;;31.10;93.50;;;;;;1948025;72;21166;-74
2021/10/20 07:40:00;;;;;;;5.35;4.10;;;31.10;98.00;;;;;;1967005;72;21168;-74
2021/10/20 07:42:33;;;;;;;7.90;3.77;;;31.20;96.80;;;;;;1953954;71;21156;-74
2021/10/20 07:45:04;;;;;;;6.72;4.00;;;31.30;96.90;;;;;;1960061;71;21109;-73
2021/10/20 07:47:35;;;;;;;4.90;3.72;;;31.60;97.80;;;;;;1949930;72;21268;-73
2021/10/20 07:50:07;;;;;;;6.58;3.37;;;31.60;96.20;;;;;;1947495;72;21222;-73
2021/10/20 07:52:39;;;;;;;7.95;3.65;;;31.50;95.90;;;;;;1937961;72;21127;-73
2021/10/20 07:55:10;;;;;;;5.62;3.65;;;31.60;97.10;;;;;;1952677;72;21614;-72
2021/10/20 07:57:41;;;;;;;9.28;4.30;;;31.60;98.30;;;;;;1951626;72;21270;-74
2021/10/20 08:00:13;;;;;;;6.65;4.03;;;31.60;98.20;;;;;;1897821;73;21555;-73
2021/10/20 08:02:44;;;;;;;6.17;4.47;;;31.80;96.80;;;;;;1957562;71;21131;-74
2021/10/20 08:05:15;;;;;;;4.97;4.22;;;31.80;95.80;;;;;;1962456;71;21213;-73
2021/10/20 08:07:48;;;;;;;4.22;3.77;;;31.70;98.10;;;;;;1956207;72;21150;-73
2021/10/20 08:10:21;;;;;;;4.53;3.80;;;31.80;98.00;;;;;;1934923;73;21080;-73
2021/10/20 08:12:54;;;;;;;9.50;3.98;;;31.80;98.10;;;;;;1906988;73;21636;-73
2021/10/20 08:15:27;;;;;;;6.85;3.92;;;31.90;98.10;;;;;;1888554;74;21229;-72
2021/10/20 08:18:03;;;;;;;5.60;4.47;;;31.70;98.10;;;;;;1924761;73;21130;-72
2021/10/20 08:20:31;;;;;;;7.53;4.35;;;31.80;98.30;;;;;;1894356;74;21140;-71
2021/10/20 08:23:04;;;;;;;6.45;4.55;;;31.80;98.20;;;;;;1963819;72;21196;-71
2021/10/20 08:25:36;;;;;;;6.87;4.60;;;31.80;98.30;;;;;;1958951;72;21142;-71
2021/10/20 08:28:07;;;;;;;5.35;4.10;;;31.80;98.20;;;;;;1955812;72;21571;-71
2021/10/20 08:30:38;;;;;;;5.35;4.53;;;31.80;98.50;;;;;;1941336;72;21158;-71
2021/10/20 08:33:09;;;;;;;8.30;5.20;;;31.90;98.80;;;;;;1938738;71;21170;-73
2021/10/20 08:35:40;;;;;;;4.97;4.05;;;31.70;98.70;;;;;;1976657;71;21808;-76
2021/10/20 08:38:11;;;;;;;7.12;4.90;;;31.90;98.70;;;;;;1943083;72;21198;-75
2021/10/20 08:40:46;;;;;;;7.72;4.60;;;31.80;98.80;;;;;;1955641;72;21651;-74
2021/10/20 08:43:17;;;;;;;5.33;4.15;;;31.70;98.80;;;;;;1945269;71;21138;-73
2021/10/20 08:45:49;;;;;;;6.30;4.65;;;31.70;98.80;;;;;;1939149;72;21702;-73
2021/10/20 08:48:22;;;;;;;5.83;4.60;;;31.80;99.10;;;;;;1935626;72;21107;-71
2021/10/20 08:50:56;;;;;;;5.87;4.20;;;31.70;99.20;;;;;;1931886;73;21706;-73
2021/10/20 08:53:27;;;;;;;7.00;4.58;;;31.60;99.90;;;;;;1877929;74;21178;-72
2021/10/20 08:56:02;;;;;;;8.23;4.53;;;31.30;99.90;;;;;;1872058;74;21130;-72
2021/10/20 08:58:32;;;;;;;6.30;4.37;;;31.40;99.90;;;;;;1889409;73;21566;-72
2021/10/20 09:01:03;;;;;;;6.08;4.40;;;31.30;99.90;;;;;;1919966;73;21093;-72
2021/10/20 09:03:34;;;;;;;5.35;4.17;;;31.00;99.90;;;;;;1913660;72;21138;-73
2021/10/20 09:06:05;;;;;;;6.05;4.85;;;30.90;99.90;;;;;;1884030;73;21170;-72
2021/10/20 09:08:38;;;;;;;6.33;4.22;;;31.00;99.90;;;;;;1872002;74;21197;-72
2021/10/20 09:11:12;;;;;;;9.95;5.12;;;30.80;99.90;;;;;;1863612;75;21084;-73
2021/10/20 09:13:43;;;;;;;9.53;4.92;;;30.90;99.90;;;;;;1877543;74;21680;-72
2021/10/20 09:16:16;;;;;;;7.80;4.42;;;30.70;99.90;;;;;;1886965;74;21632;-72
2021/10/20 09:18:47;;;;;;;7.05;3.95;;;30.90;99.90;;;;;;1858867;75;21150;-73
2021/10/20 09:21:18;;;;;;;5.28;4.00;;;30.70;99.90;;;;;;1865279;75;21095;-71
2021/10/20 09:23:49;;;;;;;7.05;4.03;;;30.70;99.90;;;;;;1911858;73;21228;-73
2021/10/20 09:26:20;;;;;;;5.25;3.70;;;30.70;99.90;;;;;;1978324;70;21231;-72
2021/10/20 09:28:52;;;;;;;7.17;4.78;;;30.70;99.90;;;;;;1969441;70;21198;-72
2021/10/20 09:31:26;;;;;;;7.47;4.30;;;30.60;99.90;;;;;;1944929;72;21093;-72
2021/10/20 09:33:59;;;;;;;5.40;4.00;;;30.60;99.90;;;;;;1952858;71;21147;-71
2021/10/20 09:36:31;;;;;;;12.05;8.60;;;30.60;99.90;;;;;;1955490;71;21087;-71
2021/10/20 09:39:02;;;;;;;10.90;7.05;;;30.50;99.90;;;;;;1960688;72;21150;-72
2021/10/20 09:41:33;;;;;;;16.95;6.50;;;30.60;99.90;;;;;;1944461;70;21644;-72
2021/10/20 09:44:05;;;;;;;30.60;7.22;;;30.60;99.90;;;;;;1953326;73;21118;-72
2021/10/20 09:46:38;;;;;;;13.28;5.30;;;30.60;99.90;;;;;;1951800;72;21212;-73
2021/10/20 09:49:11;;;;;;;29.95;6.95;;;30.60;99.90;;;;;;1917426;72;21167;-73
2021/10/20 09:51:43;;;;;;;39.42;8.60;;;30.50;99.90;;;;;;1914672;73;21216;-74
2021/10/20 09:54:16;;;;;;;12.70;5.33;;;30.50;99.90;;;;;;1922906;73;21594;-73
2021/10/20 09:56:49;;;;;;;7.33;4.42;;;30.60;99.90;;;;;;1926707;73;21241;-72
2021/10/20 09:59:21;;;;;;;7.60;5.17;;;30.50;99.90;;;;;;1910965;73;21640;-72
2021/10/20 10:01:52;;;;;;;7.40;5.10;;;30.50;99.90;;;;;;1941382;73;21663;-72
2021/10/20 10:04:25;;;;;;;10.60;4.83;;;30.60;99.90;;;;;;1920952;72;21202;-72
2021/10/20 10:06:56;;;;;;;7.45;4.95;;;30.40;99.90;;;;;;1928243;72;21080;-73
2021/10/20 10:09:28;;;;;;;5.83;4.22;;;30.50;99.90;;;;;;1957087;71;21160;-73
2021/10/20 10:12:03;;;;;;;7.05;5.20;;;30.40;99.90;;;;;;1957478;72;21083;-73
2021/10/20 10:14:36;;;;;;;6.58;4.60;;;30.40;99.90;;;;;;1949710;72;21127;-73
2021/10/20 10:17:08;;;;;;;7.80;5.85;;;30.50;99.90;;;;;;1953749;71;21150;-72
2021/10/20 10:19:41;;;;;;;6.67;4.97;;;30.40;99.90;;;;;;1935618;71;21978;-74
2021/10/20 10:22:14;;;;;;;6.72;4.70;;;30.40;99.90;;;;;;1915529;73;21228;-73
2021/10/20 10:24:45;;;;;;;8.43;5.67;;;30.50;99.90;;;;;;1879948;74;21158;-73
2021/10/20 10:27:15;;;;;;;7.28;5.55;;;30.40;99.90;;;;;;1891068;74;21171;-73
2021/10/20 10:29:49;;;;;;;9.65;6.28;;;30.30;99.90;;;;;;1908664;73;21100;-72
2021/10/20 10:32:25;;;;;;;6.55;5.17;;;30.30;99.90;;;;;;1885743;74;21233;-73
2021/10/20 10:34:56;;;;;;;6.05;4.92;;;30.40;99.90;;;;;;1889024;73;21108;-73
2021/10/20 10:37:30;;;;;;;7.58;5.40;;;30.30;99.90;;;;;;1947153;72;21213;-72
2021/10/20 10:40:03;;;;;;;11.22;8.63;;;30.20;99.90;;;;;;1937752;71;21181;-74
2021/10/20 10:42:36;;;;;;;7.40;6.55;;;30.20;99.90;;;;;;1889931;73;21135;-74
2021/10/20 10:45:09;;;;;;;8.75;5.53;;;30.10;99.90;;;;;;1946748;70;21143;-73
2021/10/20 10:47:43;;;;;;;9.70;6.12;;;30.10;99.90;;;;;;1957784;70;21128;-73
2021/10/20 10:50:13;;;;;;;9.73;5.28;;;30.10;99.90;;;;;;1942552;72;21099;-73
2021/10/20 10:52:45;;;;;;;7.05;5.40;;;30.20;99.90;;;;;;1947503;72;21138;-74
2021/10/20 10:55:20;;;;;;;8.33;5.90;;;30.20;99.90;;;;;;1949328;71;21213;-73
2021/10/20 10:57:52;;;;;;;8.73;6.12;;;30.10;99.90;;;;;;1944836;71;21065;-73
2021/10/20 11:00:22;;;;;;;9.80;5.75;;;30.00;99.90;;;;;;1951272;71;21559;-74
2021/10/20 11:02:55;;;;;;;10.08;6.85;;;30.10;99.90;;;;;;1934551;72;21630;-73
2021/10/20 11:05:27;;;;;;;9.68;6.55;;;30.10;99.90;;;;;;1952822;70;21139;-73
2021/10/20 11:08:00;;;;;;;8.20;6.08;;;30.00;99.90;;;;;;1928331;72;21210;-73
2021/10/20 11:10:32;;;;;;;9.58;6.60;;;30.00;99.90;;;;;;1944008;71;21268;-72
2021/10/20 11:13:03;;;;;;;10.90;6.60;;;29.90;99.90;;;;;;1951167;70;21129;-72
2021/10/20 11:15:36;;;;;;;11.50;7.42;;;30.00;99.90;;;;;;1936500;72;21631;-72
2021/10/20 11:18:07;;;;;;;13.95;7.55;;;29.90;99.90;;;;;;1941726;70;21128;-73
2021/10/20 11:20:42;;;;;;;12.55;7.70;;;29.90;99.90;;;;;;1941869;70;21581;-72
2021/10/20 11:23:14;;;;;;;9.25;7.92;;;29.90;99.90;;;;;;1947184;70;21204;-72
2021/10/20 11:25:46;;;;;;;9.63;7.70;;;29.90;99.90;;;;;;1956776;71;21129;-73
2021/10/20 11:28:17;;;;;;;11.28;7.85;;;29.90;99.90;;;;;;1962817;71;21270;-73
2021/10/20 11:30:49;;;;;;;13.20;7.72;;;29.80;99.90;;;;;;1951882;72;21204;-73
2021/10/20 11:33:23;;;;;;;11.65;8.88;;;29.80;99.90;;;;;;1939718;72;21709;-72
2021/10/20 11:35:59;;;;;;;10.10;7.85;;;29.80;99.90;;;;;;1927343;72;21524;-73
2021/10/20 11:38:31;;;;;;;14.23;9.25;;;29.90;99.90;;;;;;1952378;70;21637;-74
2021/10/20 11:41:07;;;;;;;13.55;9.58;;;29.70;99.90;;;;;;1957991;71;21124;-72
2021/10/20 11:43:50;;;;;;;12.78;9.63;;;29.80;99.90;;;;;;1955348;71;21413;-72
2021/10/20 11:46:26;;;;;;;13.40;9.25;;;29.70;99.90;;;;;;1934896;72;21246;-72
2021/10/20 11:48:53;;;;;;;12.50;9.88;;;29.80;99.90;;;;;;1965047;71;21088;-72
2021/10/20 11:51:24;;;;;;;12.07;8.80;;;29.60;99.90;;;;;;1940183;72;21214;-72
2021/10/20 11:53:55;;;;;;;13.93;10.40;;;29.80;99.90;;;;;;1962344;71;21079;-72
2021/10/20 11:56:25;;;;;;;15.70;11.18;;;29.60;99.90;;;;;;1941301;72;21157;-72
2021/10/20 11:58:56;;;;;;;15.18;10.48;;;29.70;99.90;;;;;;1962945;72;21090;-72
2021/10/20 12:01:30;;;;;;;12.30;8.13;;;29.60;99.90;;;;;;1913628;72;21231;-72
2021/10/20 12:04:05;;;;;;;19.50;9.70;;;29.70;99.90;;;;;;1905517;73;21221;-71
2021/10/20 12:06:33;;;;;;;13.03;8.43;;;29.60;99.90;;;;;;1885189;73;21126;-73
2021/10/20 12:09:06;;;;;;;11.30;8.75;;;29.50;97.30;;;;;;1919469;72;21090;-74
2021/10/20 12:11:37;;;;;;;12.45;9.73;;;29.50;97.40;;;;;;1935018;72;21865;-73
2021/10/20 12:14:10;;;;;;;18.27;10.00;;;29.50;97.50;;;;;;1928575;72;21271;-72
2021/10/20 12:16:42;;;;;;;15.58;11.08;;;29.50;97.50;;;;;;1920712;73;21144;-73
2021/10/20 12:19:16;;;;;;;17.95;11.48;;;29.50;97.60;;;;;;1932884;73;21563;-72
2021/10/20 12:21:46;;;;;;;19.23;13.58;;;29.40;97.60;;;;;;1919473;73;21224;-73
2021/10/20 12:24:18;;;;;;;21.15;16.62;;;29.40;97.60;;;;;;1928448;72;21156;-72
2021/10/20 12:26:50;;;;;;;23.07;15.15;;;29.40;97.70;;;;;;1927503;73;21208;-71
2021/10/20 12:29:21;;;;;;;14.73;11.20;;;29.40;97.70;;;;;;1922389;72;21188;-72
2021/10/20 12:31:51;;;;;;;15.80;11.20;;;29.30;98.00;;;;;;1939579;72;21212;-73
2021/10/20 12:34:22;;;;;;;15.65;10.60;;;29.30;98.30;;;;;;1955607;71;21630;-73
2021/10/20 12:36:53;;;;;;;17.17;11.43;;;29.20;98.50;;;;;;1919445;73;21173;-73
2021/10/20 12:39:26;;;;;;;16.77;10.18;;;29.20;98.60;;;;;;1909713;73;21088;-73
2021/10/20 12:41:59;;;;;;;16.80;11.12;;;29.20;98.70;;;;;;1868902;74;21190;-74
2021/10/20 12:44:32;;;;;;;18.05;11.45;;;29.10;98.60;;;;;;1917557;72;21176;-72
2021/10/20 12:47:05;;;;;;;21.27;10.63;;;29.10;98.60;;;;;;1893573;74;21164;-72
2021/10/20 12:49:37;;;;;;;14.40;10.63;;;29.10;98.60;;;;;;1932706;71;21088;-73
2021/10/20 12:52:09;;;;;;;12.45;10.10;;;29.10;98.50;;;;;;1939844;72;21126;-73
2021/10/20 12:54:41;;;;;;;16.85;12.75;;;29.10;98.60;;;;;;1943527;72;21058;-73
2021/10/20 12:57:14;;;;;;;18.42;13.18;;;29.10;98.60;;;;;;1930261;72;21186;-72
2021/10/20 12:59:44;;;;;;;17.37;11.28;;;29.20;98.60;;;;;;1949142;72;21613;-72
2021/10/20 13:02:15;;;;;;;17.20;11.88;;;29.10;98.70;;;;;;1966139;71;21810;-72
2021/10/20 13:04:49;;;;;;;24.00;12.03;;;29.10;98.80;;;;;;1941817;72;21644;-71